sensor_id;sensor_type;location;lat;lon;timestamp;temperature;humidity
5011;DHT22;2524;54.364;10.072;2023-11-21T00:01:27;8.30;99.90
5011;DHT22;2524;54.364;10.072;2023-11-21T00:03:53;8.30;99.90
5011;DHT22;2524;54.364;10.072;2023-11-21T00:06:20;8.30;99.90
5011;DHT22;2524;54.364;10.072;2023-11-21T00:08:46;8.20;99.90
5011;DHT22;2524;54.364;10.072;2023-11-21T00:11:11;8.20;99.90
5011;DHT22;2524;54.364;10.072;2023-11-21T00:13:37;8.20;99.90
5011;DHT22;2524;54.364;10.072;2023-11-21T00:16:03;8.20;99.90
5011;DHT22;2524;54.364;10.072;2023-11-21T00:18:29;8.20;99.90
5011;DHT22;2524;54.364;10.072;2023-11-21T00:20:55;8.20;99.90
5011;DHT22;2524;54.364;10.072;2023-11-21T00:23:20;8.20;99.90
5011;DHT22;2524;54.364;10.072;2023-11-21T00:25:46;8.20;99.90
5011;DHT22;2524;54.364;10.072;2023-11-21T00:28:11;8.20;99.90
5011;DHT22;2524;54.364;10.072;2023-11-21T00:30:37;8.20;99.90
5011;DHT22;2524;54.364;10.072;2023-11-21T00:33:03;8.20;99.90
5011;DHT22;2524;54.364;10.072;2023-11-21T00:35:29;8.20;99.90
5011;DHT22;2524;54.364;10.072;2023-11-21T00:37:55;8.20;99.90
5011;DHT22;2524;54.364;10.072;2023-11-21T00:40:21;8.20;99.90
5011;DHT22;2524;54.364;10.072;2023-11-21T00:42:47;8.20;99.90
5011;DHT22;2524;54.364;10.072;2023-11-21T00:45:13;8.10;99.90
5011;DHT22;2524;54.364;10.072;2023-11-21T00:47:38;8.20;99.90
5011;DHT22;2524;54.364;10.072;2023-11-21T00:50:05;8.20;99.90
5011;DHT22;2524;54.364;10.072;2023-11-21T00:52:32;8.20;99.90
5011;DHT22;2524;54.364;10.072;2023-11-21T00:54:58;8.20;99.90
5011;DHT22;2524;54.364;10.072;2023-11-21T00:57:26;8.20;99.90
5011;DHT22;2524;54.364;10.072;2023-11-21T00:59:51;8.20;99.90
5011;DHT22;2524;54.364;10.072;2023-11-21T01:02:17;8.20;99.90
5011;DHT22;2524;54.364;10.072;2023-11-21T01:04:42;8.20;99.90
5011;DHT22;2524;54.364;10.072;2023-11-21T01:07:09;8.20;99.90
5011;DHT22;2524;54.364;10.072;2023-11-21T01:09:34;8.20;99.90
5011;DHT22;2524;54.364;10.072;2023-11-21T01:12:00;8.20;99.90
5011;DHT22;2524;54.364;10.072;2023-11-21T01:14:26;8.20;99.90
5011;DHT22;2524;54.364;10.072;2023-11-21T01:16:54;8.20;99.90
5011;DHT22;2524;54.364;10.072;2023-11-21T01:19:20;8.20;99.90
5011;DHT22;2524;54.364;10.072;2023-11-21T01:21:45;8.20;99.90
5011;DHT22;2524;54.364;10.072;2023-11-21T01:24:11;8.20;99.90
5011;DHT22;2524;54.364;10.072;2023-11-21T01:26:36;8.10;99.90
5011;DHT22;2524;54.364;10.072;2023-11-21T01:29:02;8.20;99.90
5011;DHT22;2524;54.364;10.072;2023-11-21T01:31:27;8.10;99.90
5011;DHT22;2524;54.364;10.072;2023-11-21T01:33:55;8.10;99.90
5011;DHT22;2524;54.364;10.072;2023-11-21T01:36:21;8.10;99.90
5011;DHT22;2524;54.364;10.072;2023-11-21T01:38:47;8.10;99.90
5011;DHT22;2524;54.364;10.072;2023-11-21T01:41:13;8.10;99.90
5011;DHT22;2524;54.364;10.072;2023-11-21T01:43:39;8.10;99.90
5011;DHT22;2524;54.364;10.072;2023-11-21T01:46:05;8.10;99.90
5011;DHT22;2524;54.364;10.072;2023-11-21T01:48:31;8.10;99.90
5011;DHT22;2524;54.364;10.072;2023-11-21T01:50:57;8.10;99.90
5011;DHT22;2524;54.364;10.072;2023-11-21T01:53:25;8.10;99.90
5011;DHT22;2524;54.364;10.072;2023-11-21T01:55:51;8.10;99.90
5011;DHT22;2524;54.364;10.072;2023-11-21T01:58:18;8.10;99.90
5011;DHT22;2524;54.364;10.072;2023-11-21T02:00:43;8.10;99.90
5011;DHT22;2524;54.364;10.072;2023-11-21T02:03:09;8.10;99.90
5011;DHT22;2524;54.364;10.072;2023-11-21T02:05:35;8.10;99.90
5011;DHT22;2524;54.364;10.072;2023-11-21T02:08:01;8.10;99.90
5011;DHT22;2524;54.364;10.072;2023-11-21T02:10:28;8.10;99.90
5011;DHT22;2524;54.364;10.072;2023-11-21T02:12:54;8.10;99.90
5011;DHT22;2524;54.364;10.072;2023-11-21T02:15:21;8.00;99.90
5011;DHT22;2524;54.364;10.072;2023-11-21T02:17:49;8.00;99.90
5011;DHT22;2524;54.364;10.072;2023-11-21T02:20:17;8.00;99.90
5011;DHT22;2524;54.364;10.072;2023-11-21T02:22:48;8.00;99.90
5011;DHT22;2524;54.364;10.072;2023-11-21T02:25:14;8.00;99.90
5011;DHT22;2524;54.364;10.072;2023-11-21T02:27:39;8.00;99.90
5011;DHT22;2524;54.364;10.072;2023-11-21T02:30:05;8.00;99.90
5011;DHT22;2524;54.364;10.072;2023-11-21T02:32:33;8.00;99.90
5011;DHT22;2524;54.364;10.072;2023-11-21T02:34:59;8.00;99.90
5011;DHT22;2524;54.364;10.072;2023-11-21T02:37:28;8.00;99.90
5011;DHT22;2524;54.364;10.072;2023-11-21T02:39:53;8.00;99.90
5011;DHT22;2524;54.364;10.072;2023-11-21T02:42:19;8.00;99.90
5011;DHT22;2524;54.364;10.072;2023-11-21T02:44:44;8.00;99.90
5011;DHT22;2524;54.364;10.072;2023-11-21T02:47:10;8.00;99.90
5011;DHT22;2524;54.364;10.072;2023-11-21T02:49:36;8.00;99.90
5011;DHT22;2524;54.364;10.072;2023-11-21T02:52:01;8.00;99.90
5011;DHT22;2524;54.364;10.072;2023-11-21T02:54:27;8.00;99.90
5011;DHT22;2524;54.364;10.072;2023-11-21T02:56:53;8.00;99.90
5011;DHT22;2524;54.364;10.072;2023-11-21T02:59:18;8.00;99.90
5011;DHT22;2524;54.364;10.072;2023-11-21T03:01:45;8.00;99.90
5011;DHT22;2524;54.364;10.072;2023-11-21T03:04:11;8.00;99.90
5011;DHT22;2524;54.364;10.072;2023-11-21T03:06:36;8.00;99.90
5011;DHT22;2524;54.364;10.072;2023-11-21T03:09:02;7.90;99.90
5011;DHT22;2524;54.364;10.072;2023-11-21T03:11:27;7.90;99.90
5011;DHT22;2524;54.364;10.072;2023-11-21T03:13:53;7.90;99.90
5011;DHT22;2524;54.364;10.072;2023-11-21T03:16:19;7.90;99.90
5011;DHT22;2524;54.364;10.072;2023-11-21T03:18:44;7.90;99.90
5011;DHT22;2524;54.364;10.072;2023-11-21T03:21:10;8.00;99.90
5011;DHT22;2524;54.364;10.072;2023-11-21T03:23:36;7.90;99.90
5011;DHT22;2524;54.364;10.072;2023-11-21T03:26:02;7.90;99.90
5011;DHT22;2524;54.364;10.072;2023-11-21T03:28:28;7.90;99.90
5011;DHT22;2524;54.364;10.072;2023-11-21T03:30:54;7.90;99.90
5011;DHT22;2524;54.364;10.072;2023-11-21T03:33:20;7.90;99.90
5011;DHT22;2524;54.364;10.072;2023-11-21T03:35:45;7.90;99.90
5011;DHT22;2524;54.364;10.072;2023-11-21T03:38:11;7.90;99.90
5011;DHT22;2524;54.364;10.072;2023-11-21T03:40:37;7.80;99.90
5011;DHT22;2524;54.364;10.072;2023-11-21T03:43:04;7.80;99.90
5011;DHT22;2524;54.364;10.072;2023-11-21T03:45:30;7.80;99.90
5011;DHT22;2524;54.364;10.072;2023-11-21T03:47:56;7.80;99.90
5011;DHT22;2524;54.364;10.072;2023-11-21T03:50:21;7.80;99.90
5011;DHT22;2524;54.364;10.072;2023-11-21T03:52:50;7.80;99.90
5011;DHT22;2524;54.364;10.072;2023-11-21T03:55:15;7.80;99.90
5011;DHT22;2524;54.364;10.072;2023-11-21T03:57:42;7.80;99.90
5011;DHT22;2524;54.364;10.072;2023-11-21T04:00:08;7.70;99.90
5011;DHT22;2524;54.364;10.072;2023-11-21T04:02:34;7.70;99.90
5011;DHT22;2524;54.364;10.072;2023-11-21T04:05:00;7.70;99.90
5011;DHT22;2524;54.364;10.072;2023-11-21T04:07:26;7.70;99.90
5011;DHT22;2524;54.364;10.072;2023-11-21T04:09:52;7.70;99.90
5011;DHT22;2524;54.364;10.072;2023-11-21T04:12:19;7.70;99.90
5011;DHT22;2524;54.364;10.072;2023-11-21T04:14:44;7.80;99.90
5011;DHT22;2524;54.364;10.072;2023-11-21T04:17:10;7.80;99.90
5011;DHT22;2524;54.364;10.072;2023-11-21T04:19:35;7.80;99.90
5011;DHT22;2524;54.364;10.072;2023-11-21T04:22:01;7.80;99.90
5011;DHT22;2524;54.364;10.072;2023-11-21T04:24:26;7.70;99.90
5011;DHT22;2524;54.364;10.072;2023-11-21T04:26:52;7.70;99.90
5011;DHT22;2524;54.364;10.072;2023-11-21T04:29:18;7.80;99.90
5011;DHT22;2524;54.364;10.072;2023-11-21T04:31:44;7.70;99.90
5011;DHT22;2524;54.364;10.072;2023-11-21T04:34:09;7.70;99.90
5011;DHT22;2524;54.364;10.072;2023-11-21T04:36:35;7.70;99.90
5011;DHT22;2524;54.364;10.072;2023-11-21T04:39:01;7.70;99.90
5011;DHT22;2524;54.364;10.072;2023-11-21T04:41:26;7.80;99.90
5011;DHT22;2524;54.364;10.072;2023-11-21T04:43:52;7.70;99.90
5011;DHT22;2524;54.364;10.072;2023-11-21T04:46:18;7.70;99.90
5011;DHT22;2524;54.364;10.072;2023-11-21T04:48:43;7.70;99.90
5011;DHT22;2524;54.364;10.072;2023-11-21T04:51:09;7.70;99.90
5011;DHT22;2524;54.364;10.072;2023-11-21T04:53:37;7.70;99.90
5011;DHT22;2524;54.364;10.072;2023-11-21T04:56:02;7.70;99.90
5011;DHT22;2524;54.364;10.072;2023-11-21T04:58:28;7.70;99.90
5011;DHT22;2524;54.364;10.072;2023-11-21T05:00:54;7.70;99.90
5011;DHT22;2524;54.364;10.072;2023-11-21T05:03:19;7.70;99.90
5011;DHT22;2524;54.364;10.072;2023-11-21T05:05:45;7.70;99.90
5011;DHT22;2524;54.364;10.072;2023-11-21T05:08:11;7.70;99.90
5011;DHT22;2524;54.364;10.072;2023-11-21T05:10:37;7.70;99.90
5011;DHT22;2524;54.364;10.072;2023-11-21T05:13:04;7.70;99.90
5011;DHT22;2524;54.364;10.072;2023-11-21T05:15:35;7.70;99.90
5011;DHT22;2524;54.364;10.072;2023-11-21T05:18:00;7.60;99.90
5011;DHT22;2524;54.364;10.072;2023-11-21T05:20:26;7.60;99.90
5011;DHT22;2524;54.364;10.072;2023-11-21T05:22:51;7.60;99.90
5011;DHT22;2524;54.364;10.072;2023-11-21T05:25:17;7.60;99.90
5011;DHT22;2524;54.364;10.072;2023-11-21T05:27:45;7.60;99.90
5011;DHT22;2524;54.364;10.072;2023-11-21T05:30:11;7.70;99.90
5011;DHT22;2524;54.364;10.072;2023-11-21T05:32:38;7.60;99.90
5011;DHT22;2524;54.364;10.072;2023-11-21T05:35:04;7.70;99.90
5011;DHT22;2524;54.364;10.072;2023-11-21T05:37:35;7.60;99.90
5011;DHT22;2524;54.364;10.072;2023-11-21T05:40:01;7.60;99.90
5011;DHT22;2524;54.364;10.072;2023-11-21T05:42:34;7.60;99.90
5011;DHT22;2524;54.364;10.072;2023-11-21T05:44:59;7.60;99.90
5011;DHT22;2524;54.364;10.072;2023-11-21T05:47:43;7.60;99.90
5011;DHT22;2524;54.364;10.072;2023-11-21T05:50:10;7.60;99.90
5011;DHT22;2524;54.364;10.072;2023-11-21T05:52:38;7.60;99.90
5011;DHT22;2524;54.364;10.072;2023-11-21T05:55:07;7.60;99.90
5011;DHT22;2524;54.364;10.072;2023-11-21T05:57:40;7.60;99.90
5011;DHT22;2524;54.364;10.072;2023-11-21T06:00:11;7.60;99.90
5011;DHT22;2524;54.364;10.072;2023-11-21T06:02:52;7.60;99.90
5011;DHT22;2524;54.364;10.072;2023-11-21T06:05:23;7.60;99.90
5011;DHT22;2524;54.364;10.072;2023-11-21T06:07:49;7.60;99.90
5011;DHT22;2524;54.364;10.072;2023-11-21T06:10:15;7.50;99.90
5011;DHT22;2524;54.364;10.072;2023-11-21T06:12:44;7.50;99.90
5011;DHT22;2524;54.364;10.072;2023-11-21T06:15:11;7.50;99.90
5011;DHT22;2524;54.364;10.072;2023-11-21T06:17:40;7.50;99.90
5011;DHT22;2524;54.364;10.072;2023-11-21T06:20:07;7.50;99.90
5011;DHT22;2524;54.364;10.072;2023-11-21T06:22:40;7.50;99.90
5011;DHT22;2524;54.364;10.072;2023-11-21T06:25:07;7.50;99.90
5011;DHT22;2524;54.364;10.072;2023-11-21T06:27:34;7.50;99.90
5011;DHT22;2524;54.364;10.072;2023-11-21T06:30:00;7.50;99.90
5011;DHT22;2524;54.364;10.072;2023-11-21T06:32:25;7.50;99.90
5011;DHT22;2524;54.364;10.072;2023-11-21T06:34:51;7.40;99.90
5011;DHT22;2524;54.364;10.072;2023-11-21T06:37:19;7.40;99.90
5011;DHT22;2524;54.364;10.072;2023-11-21T06:39:46;7.50;99.90
5011;DHT22;2524;54.364;10.072;2023-11-21T06:42:12;7.40;99.90
5011;DHT22;2524;54.364;10.072;2023-11-21T06:44:38;7.50;99.90
5011;DHT22;2524;54.364;10.072;2023-11-21T06:47:04;7.40;99.90
5011;DHT22;2524;54.364;10.072;2023-11-21T06:49:30;7.50;99.90
5011;DHT22;2524;54.364;10.072;2023-11-21T06:51:56;7.50;99.90
5011;DHT22;2524;54.364;10.072;2023-11-21T06:54:22;7.40;99.90
5011;DHT22;2524;54.364;10.072;2023-11-21T06:56:48;7.40;99.90
5011;DHT22;2524;54.364;10.072;2023-11-21T06:59:13;7.40;99.90
5011;DHT22;2524;54.364;10.072;2023-11-21T07:01:39;7.40;99.90
5011;DHT22;2524;54.364;10.072;2023-11-21T07:04:06;7.40;99.90
5011;DHT22;2524;54.364;10.072;2023-11-21T07:06:32;7.40;99.90
5011;DHT22;2524;54.364;10.072;2023-11-21T07:08:58;7.50;99.90
5011;DHT22;2524;54.364;10.072;2023-11-21T07:11:24;7.50;99.90
5011;DHT22;2524;54.364;10.072;2023-11-21T07:13:50;7.40;99.90
5011;DHT22;2524;54.364;10.072;2023-11-21T07:16:16;7.50;99.90
5011;DHT22;2524;54.364;10.072;2023-11-21T07:18:41;7.50;99.90
5011;DHT22;2524;54.364;10.072;2023-11-21T07:21:07;7.50;99.90
5011;DHT22;2524;54.364;10.072;2023-11-21T07:23:34;7.50;99.90
5011;DHT22;2524;54.364;10.072;2023-11-21T07:25:59;7.50;99.90
5011;DHT22;2524;54.364;10.072;2023-11-21T07:28:25;7.50;99.90
5011;DHT22;2524;54.364;10.072;2023-11-21T07:30:53;7.50;99.90
5011;DHT22;2524;54.364;10.072;2023-11-21T07:33:19;7.50;99.90
5011;DHT22;2524;54.364;10.072;2023-11-21T07:35:44;7.50;99.90
5011;DHT22;2524;54.364;10.072;2023-11-21T07:38:10;7.40;99.90
5011;DHT22;2524;54.364;10.072;2023-11-21T07:40:35;7.50;99.90
5011;DHT22;2524;54.364;10.072;2023-11-21T07:43:01;7.50;99.90
5011;DHT22;2524;54.364;10.072;2023-11-21T07:45:27;7.50;99.90
5011;DHT22;2524;54.364;10.072;2023-11-21T07:47:55;7.40;99.90
5011;DHT22;2524;54.364;10.072;2023-11-21T07:50:22;7.40;99.90
5011;DHT22;2524;54.364;10.072;2023-11-21T07:52:48;7.40;99.90
5011;DHT22;2524;54.364;10.072;2023-11-21T07:55:15;7.40;99.90
5011;DHT22;2524;54.364;10.072;2023-11-21T07:57:41;7.40;99.90
5011;DHT22;2524;54.364;10.072;2023-11-21T08:00:07;7.40;99.90
5011;DHT22;2524;54.364;10.072;2023-11-21T08:02:34;7.40;99.90
5011;DHT22;2524;54.364;10.072;2023-11-21T08:05:00;7.50;99.90
5011;DHT22;2524;54.364;10.072;2023-11-21T08:07:26;7.40;99.90
5011;DHT22;2524;54.364;10.072;2023-11-21T08:09:51;7.40;99.90
5011;DHT22;2524;54.364;10.072;2023-11-21T08:12:18;7.40;99.90
5011;DHT22;2524;54.364;10.072;2023-11-21T08:14:45;7.40;99.90
5011;DHT22;2524;54.364;10.072;2023-11-21T08:17:11;7.50;99.90
5011;DHT22;2524;54.364;10.072;2023-11-21T08:19:36;7.50;99.90
5011;DHT22;2524;54.364;10.072;2023-11-21T08:22:03;7.40;99.90
5011;DHT22;2524;54.364;10.072;2023-11-21T08:24:29;7.50;99.90
5011;DHT22;2524;54.364;10.072;2023-11-21T08:26:54;7.40;99.90
5011;DHT22;2524;54.364;10.072;2023-11-21T08:29:20;7.40;99.90
5011;DHT22;2524;54.364;10.072;2023-11-21T08:31:46;7.40;99.90
5011;DHT22;2524;54.364;10.072;2023-11-21T08:34:12;7.50;99.90
5011;DHT22;2524;54.364;10.072;2023-11-21T08:36:42;7.50;99.90
5011;DHT22;2524;54.364;10.072;2023-11-21T08:39:08;7.50;99.90
5011;DHT22;2524;54.364;10.072;2023-11-21T08:41:34;7.40;99.90
5011;DHT22;2524;54.364;10.072;2023-11-21T08:44:02;7.40;99.90
5011;DHT22;2524;54.364;10.072;2023-11-21T08:46:32;7.50;99.90
5011;DHT22;2524;54.364;10.072;2023-11-21T08:49:00;7.50;99.90
5011;DHT22;2524;54.364;10.072;2023-11-21T08:51:26;7.50;99.90
5011;DHT22;2524;54.364;10.072;2023-11-21T08:53:51;7.40;99.90
5011;DHT22;2524;54.364;10.072;2023-11-21T08:56:17;7.50;99.90
5011;DHT22;2524;54.364;10.072;2023-11-21T08:58:45;7.50;99.90
5011;DHT22;2524;54.364;10.072;2023-11-21T09:01:12;7.50;99.90
5011;DHT22;2524;54.364;10.072;2023-11-21T09:03:38;7.50;99.90
5011;DHT22;2524;54.364;10.072;2023-11-21T09:06:03;7.50;99.90
5011;DHT22;2524;54.364;10.072;2023-11-21T09:08:30;7.50;99.90
5011;DHT22;2524;54.364;10.072;2023-11-21T09:10:55;7.50;99.90
5011;DHT22;2524;54.364;10.072;2023-11-21T09:13:21;7.50;99.90
5011;DHT22;2524;54.364;10.072;2023-11-21T09:15:46;7.50;99.90
5011;DHT22;2524;54.364;10.072;2023-11-21T09:18:15;7.50;99.90
5011;DHT22;2524;54.364;10.072;2023-11-21T09:20:41;7.50;99.90
5011;DHT22;2524;54.364;10.072;2023-11-21T09:23:09;7.50;99.90
5011;DHT22;2524;54.364;10.072;2023-11-21T09:25:35;7.50;99.90
5011;DHT22;2524;54.364;10.072;2023-11-21T09:28:01;7.50;99.90
5011;DHT22;2524;54.364;10.072;2023-11-21T09:30:26;7.60;99.90
5011;DHT22;2524;54.364;10.072;2023-11-21T09:32:52;7.50;99.90
5011;DHT22;2524;54.364;10.072;2023-11-21T09:35:18;7.50;99.90
5011;DHT22;2524;54.364;10.072;2023-11-21T09:37:46;7.50;99.90
5011;DHT22;2524;54.364;10.072;2023-11-21T09:40:13;7.50;99.90
5011;DHT22;2524;54.364;10.072;2023-11-21T09:45:25;7.50;99.90
5011;DHT22;2524;54.364;10.072;2023-11-21T09:47:53;7.50;99.90
5011;DHT22;2524;54.364;10.072;2023-11-21T09:50:21;7.50;99.90
5011;DHT22;2524;54.364;10.072;2023-11-21T09:52:49;7.50;99.90
5011;DHT22;2524;54.364;10.072;2023-11-21T09:55:20;7.50;99.90
5011;DHT22;2524;54.364;10.072;2023-11-21T09:57:47;7.50;99.90
5011;DHT22;2524;54.364;10.072;2023-11-21T10:00:14;7.50;99.90
5011;DHT22;2524;54.364;10.072;2023-11-21T10:02:43;7.50;99.90
5011;DHT22;2524;54.364;10.072;2023-11-21T10:05:09;7.60;99.90
5011;DHT22;2524;54.364;10.072;2023-11-21T10:07:39;7.50;99.90
5011;DHT22;2524;54.364;10.072;2023-11-21T10:10:07;7.50;99.90
5011;DHT22;2524;54.364;10.072;2023-11-21T10:12:35;7.60;99.90
5011;DHT22;2524;54.364;10.072;2023-11-21T10:15:03;7.60;99.90
5011;DHT22;2524;54.364;10.072;2023-11-21T10:17:30;7.60;99.90
5011;DHT22;2524;54.364;10.072;2023-11-21T10:20:02;7.60;99.90
5011;DHT22;2524;54.364;10.072;2023-11-21T10:22:31;7.60;99.90
5011;DHT22;2524;54.364;10.072;2023-11-21T10:24:57;7.60;99.90
5011;DHT22;2524;54.364;10.072;2023-11-21T10:27:22;7.60;99.90
5011;DHT22;2524;54.364;10.072;2023-11-21T10:29:51;7.60;99.90
5011;DHT22;2524;54.364;10.072;2023-11-21T10:32:16;7.50;99.90
5011;DHT22;2524;54.364;10.072;2023-11-21T10:34:42;7.50;99.90
5011;DHT22;2524;54.364;10.072;2023-11-21T10:37:11;7.50;99.90
5011;DHT22;2524;54.364;10.072;2023-11-21T10:39:39;7.50;99.90
5011;DHT22;2524;54.364;10.072;2023-11-21T10:42:04;7.50;99.90
5011;DHT22;2524;54.364;10.072;2023-11-21T10:44:34;7.50;99.90
5011;DHT22;2524;54.364;10.072;2023-11-21T10:47:00;7.50;99.90
5011;DHT22;2524;54.364;10.072;2023-11-21T10:49:26;7.40;99.90
5011;DHT22;2524;54.364;10.072;2023-11-21T10:51:53;7.50;99.90
5011;DHT22;2524;54.364;10.072;2023-11-21T10:54:23;7.40;99.90
5011;DHT22;2524;54.364;10.072;2023-11-21T10:56:59;7.40;99.90
5011;DHT22;2524;54.364;10.072;2023-11-21T10:59:28;7.40;99.90
5011;DHT22;2524;54.364;10.072;2023-11-21T11:01:54;7.40;99.90
5011;DHT22;2524;54.364;10.072;2023-11-21T11:04:22;7.40;99.90
5011;DHT22;2524;54.364;10.072;2023-11-21T11:07:02;7.40;99.90
5011;DHT22;2524;54.364;10.072;2023-11-21T11:09:30;7.30;99.90
5011;DHT22;2524;54.364;10.072;2023-11-21T11:11:57;7.40;99.90
5011;DHT22;2524;54.364;10.072;2023-11-21T11:14:25;7.30;99.90
5011;DHT22;2524;54.364;10.072;2023-11-21T11:16:54;7.30;99.90
5011;DHT22;2524;54.364;10.072;2023-11-21T11:19:21;7.30;99.90
5011;DHT22;2524;54.364;10.072;2023-11-21T11:24:54;7.30;99.90
5011;DHT22;2524;54.364;10.072;2023-11-21T11:38:31;7.30;99.90
5011;DHT22;2524;54.364;10.072;2023-11-21T11:41:02;7.30;99.90
5011;DHT22;2524;54.364;10.072;2023-11-21T11:43:29;7.30;99.90
5011;DHT22;2524;54.364;10.072;2023-11-21T11:45:56;7.30;99.90
5011;DHT22;2524;54.364;10.072;2023-11-21T11:48:23;7.30;99.90
5011;DHT22;2524;54.364;10.072;2023-11-21T11:51:10;7.30;99.90
5011;DHT22;2524;54.364;10.072;2023-11-21T11:53:46;7.30;99.90
5011;DHT22;2524;54.364;10.072;2023-11-21T11:56:31;7.30;99.90
5011;DHT22;2524;54.364;10.072;2023-11-21T11:59:01;7.20;99.90
5011;DHT22;2524;54.364;10.072;2023-11-21T12:01:34;7.30;99.90
5011;DHT22;2524;54.364;10.072;2023-11-21T12:06:43;7.30;99.90
5011;DHT22;2524;54.364;10.072;2023-11-21T12:09:19;7.30;99.90
5011;DHT22;2524;54.364;10.072;2023-11-21T12:11:47;7.30;99.90
5011;DHT22;2524;54.364;10.072;2023-11-21T12:14:14;7.30;99.90
5011;DHT22;2524;54.364;10.072;2023-11-21T12:16:40;7.30;99.90
5011;DHT22;2524;54.364;10.072;2023-11-21T12:19:05;7.30;99.90
5011;DHT22;2524;54.364;10.072;2023-11-21T12:21:31;7.30;99.90
5011;DHT22;2524;54.364;10.072;2023-11-21T12:23:58;7.30;99.90
5011;DHT22;2524;54.364;10.072;2023-11-21T12:26:24;7.30;99.90
5011;DHT22;2524;54.364;10.072;2023-11-21T12:28:56;7.30;99.90
5011;DHT22;2524;54.364;10.072;2023-11-21T12:31:22;7.30;99.90
5011;DHT22;2524;54.364;10.072;2023-11-21T12:33:48;7.30;99.90
5011;DHT22;2524;54.364;10.072;2023-11-21T12:36:13;7.30;99.90
5011;DHT22;2524;54.364;10.072;2023-11-21T12:38:39;7.30;99.90
5011;DHT22;2524;54.364;10.072;2023-11-21T12:41:05;7.30;99.90
5011;DHT22;2524;54.364;10.072;2023-11-21T12:43:32;7.30;99.90
5011;DHT22;2524;54.364;10.072;2023-11-21T12:46:08;7.30;99.90
5011;DHT22;2524;54.364;10.072;2023-11-21T12:48:37;7.30;99.90
5011;DHT22;2524;54.364;10.072;2023-11-21T12:51:05;7.20;99.90
5011;DHT22;2524;54.364;10.072;2023-11-21T12:53:32;7.30;99.90
5011;DHT22;2524;54.364;10.072;2023-11-21T12:56:09;7.20;99.90
5011;DHT22;2524;54.364;10.072;2023-11-21T12:58:37;7.20;99.90
5011;DHT22;2524;54.364;10.072;2023-11-21T13:01:05;7.20;99.90
5011;DHT22;2524;54.364;10.072;2023-11-21T13:03:31;7.20;99.90
5011;DHT22;2524;54.364;10.072;2023-11-21T13:05:58;7.20;99.90
5011;DHT22;2524;54.364;10.072;2023-11-21T13:08:25;7.20;99.90
5011;DHT22;2524;54.364;10.072;2023-11-21T13:10:56;7.20;99.90
5011;DHT22;2524;54.364;10.072;2023-11-21T13:13:22;7.20;99.90
5011;DHT22;2524;54.364;10.072;2023-11-21T13:15:54;7.10;99.90
5011;DHT22;2524;54.364;10.072;2023-11-21T13:18:22;7.10;99.90
5011;DHT22;2524;54.364;10.072;2023-11-21T13:20:49;7.20;99.90
5011;DHT22;2524;54.364;10.072;2023-11-21T13:23:15;7.10;99.90
5011;DHT22;2524;54.364;10.072;2023-11-21T13:25:42;7.10;99.90
5011;DHT22;2524;54.364;10.072;2023-11-21T13:28:08;7.10;99.90
5011;DHT22;2524;54.364;10.072;2023-11-21T13:30:35;7.10;99.90
5011;DHT22;2524;54.364;10.072;2023-11-21T13:33:04;7.00;99.90
5011;DHT22;2524;54.364;10.072;2023-11-21T13:35:37;7.10;99.90
5011;DHT22;2524;54.364;10.072;2023-11-21T13:38:08;7.00;99.90
5011;DHT22;2524;54.364;10.072;2023-11-21T13:40:35;7.00;99.90
5011;DHT22;2524;54.364;10.072;2023-11-21T13:43:08;7.00;99.90
5011;DHT22;2524;54.364;10.072;2023-11-21T13:45:44;7.10;99.90
5011;DHT22;2524;54.364;10.072;2023-11-21T13:48:12;7.10;99.90
5011;DHT22;2524;54.364;10.072;2023-11-21T13:50:45;7.10;99.90
5011;DHT22;2524;54.364;10.072;2023-11-21T13:53:21;7.10;99.90
5011;DHT22;2524;54.364;10.072;2023-11-21T13:55:50;7.10;99.90
5011;DHT22;2524;54.364;10.072;2023-11-21T13:58:19;7.10;99.90
5011;DHT22;2524;54.364;10.072;2023-11-21T14:00:49;7.10;99.90
5011;DHT22;2524;54.364;10.072;2023-11-21T14:03:22;7.00;99.90
5011;DHT22;2524;54.364;10.072;2023-11-21T14:05:50;7.00;99.90
5011;DHT22;2524;54.364;10.072;2023-11-21T14:08:21;7.00;99.90
5011;DHT22;2524;54.364;10.072;2023-11-21T14:10:48;7.00;99.90
5011;DHT22;2524;54.364;10.072;2023-11-21T14:13:21;7.00;99.90
5011;DHT22;2524;54.364;10.072;2023-11-21T14:15:49;7.00;99.90
5011;DHT22;2524;54.364;10.072;2023-11-21T14:18:16;7.00;99.90
5011;DHT22;2524;54.364;10.072;2023-11-21T14:20:43;7.00;99.90
5011;DHT22;2524;54.364;10.072;2023-11-21T14:23:10;6.90;99.90
5011;DHT22;2524;54.364;10.072;2023-11-21T14:25:36;7.00;99.90
5011;DHT22;2524;54.364;10.072;2023-11-21T14:28:03;7.00;99.90
5011;DHT22;2524;54.364;10.072;2023-11-21T14:30:29;7.00;99.90
5011;DHT22;2524;54.364;10.072;2023-11-21T14:33:00;7.00;99.90
5011;DHT22;2524;54.364;10.072;2023-11-21T14:35:26;7.00;99.90
5011;DHT22;2524;54.364;10.072;2023-11-21T14:37:52;7.00;99.90
5011;DHT22;2524;54.364;10.072;2023-11-21T14:40:18;7.00;99.90
5011;DHT22;2524;54.364;10.072;2023-11-21T14:42:52;7.00;99.90
5011;DHT22;2524;54.364;10.072;2023-11-21T14:45:19;6.90;99.90
5011;DHT22;2524;54.364;10.072;2023-11-21T14:47:48;6.90;99.90
5011;DHT22;2524;54.364;10.072;2023-11-21T14:50:34;7.00;99.90
5011;DHT22;2524;54.364;10.072;2023-11-21T14:53:28;6.90;99.90
5011;DHT22;2524;54.364;10.072;2023-11-21T14:56:09;6.90;99.90
5011;DHT22;2524;54.364;10.072;2023-11-21T14:58:35;6.90;99.90
5011;DHT22;2524;54.364;10.072;2023-11-21T15:01:03;6.80;99.90
5011;DHT22;2524;54.364;10.072;2023-11-21T15:03:30;6.80;99.90
5011;DHT22;2524;54.364;10.072;2023-11-21T15:06:05;6.80;99.90
5011;DHT22;2524;54.364;10.072;2023-11-21T15:08:59;6.80;99.90
5011;DHT22;2524;54.364;10.072;2023-11-21T15:11:34;6.80;99.90
5011;DHT22;2524;54.364;10.072;2023-11-21T15:14:00;6.80;99.90
5011;DHT22;2524;54.364;10.072;2023-11-21T15:16:26;6.70;99.90
5011;DHT22;2524;54.364;10.072;2023-11-21T15:18:52;6.70;99.90
5011;DHT22;2524;54.364;10.072;2023-11-21T15:21:21;6.70;99.90
5011;DHT22;2524;54.364;10.072;2023-11-21T15:23:49;6.60;99.90
5011;DHT22;2524;54.364;10.072;2023-11-21T15:26:15;6.60;99.90
5011;DHT22;2524;54.364;10.072;2023-11-21T15:28:40;6.60;99.90
5011;DHT22;2524;54.364;10.072;2023-11-21T15:31:06;6.60;99.90
5011;DHT22;2524;54.364;10.072;2023-11-21T15:33:35;6.50;99.90
5011;DHT22;2524;54.364;10.072;2023-11-21T15:36:04;6.50;99.90
5011;DHT22;2524;54.364;10.072;2023-11-21T15:38:33;6.50;99.90
5011;DHT22;2524;54.364;10.072;2023-11-21T15:40:59;6.50;99.90
5011;DHT22;2524;54.364;10.072;2023-11-21T15:43:25;6.50;99.90
5011;DHT22;2524;54.364;10.072;2023-11-21T15:45:51;6.50;99.90
5011;DHT22;2524;54.364;10.072;2023-11-21T15:48:17;6.50;99.90
5011;DHT22;2524;54.364;10.072;2023-11-21T15:50:43;6.40;99.90
5011;DHT22;2524;54.364;10.072;2023-11-21T15:53:10;6.40;99.90
5011;DHT22;2524;54.364;10.072;2023-11-21T15:55:35;6.20;99.90
5011;DHT22;2524;54.364;10.072;2023-11-21T15:58:08;6.40;99.90
5011;DHT22;2524;54.364;10.072;2023-11-21T16:00:34;6.40;99.90
5011;DHT22;2524;54.364;10.072;2023-11-21T16:02:59;6.30;99.90
5011;DHT22;2524;54.364;10.072;2023-11-21T16:05:25;6.30;99.90
5011;DHT22;2524;54.364;10.072;2023-11-21T16:07:52;6.30;99.90
5011;DHT22;2524;54.364;10.072;2023-11-21T16:10:19;6.30;99.90
5011;DHT22;2524;54.364;10.072;2023-11-21T16:12:45;6.30;99.90
5011;DHT22;2524;54.364;10.072;2023-11-21T16:15:11;6.30;99.90
5011;DHT22;2524;54.364;10.072;2023-11-21T16:17:38;6.30;99.90
5011;DHT22;2524;54.364;10.072;2023-11-21T16:20:04;6.20;99.90
5011;DHT22;2524;54.364;10.072;2023-11-21T16:22:34;6.20;99.90